Time;durP1;ratioP1;P1;durP2;ratioP2;P2;SDS_P1;SDS_P2;PMS_P1;PMS_P2;Temp;Humidity;BMP_temperature;BMP_pressure;BME280_temperature;BME280_humidity;BME280_pressure;Samples;Min_cycle;Max_cycle;Signal;HPM_P1;HPM_P2
2021/12/30 00:02:25;;;;;;;37.58;7.28;;;8.40;99.90;;;;;;4998449;28;20061;-88
2021/12/30 00:04:51;;;;;;;35.85;7.63;;;8.20;99.90;;;;;;4996438;28;20058;-89
2021/12/30 00:07:17;;;;;;;50.78;9.60;;;8.70;99.90;;;;;;4997839;28;20504;-89
2021/12/30 00:09:43;;;;;;;46.55;8.13;;;8.20;99.90;;;;;;4999479;28;20064;-88
2021/12/30 00:12:09;;;;;;;48.95;8.35;;;8.20;99.90;;;;;;4998324;28;20053;-88
2021/12/30 00:14:35;;;;;;;45.35;9.10;;;8.10;99.90;;;;;;4999035;28;20041;-87
2021/12/30 00:17:00;;;;;;;59.42;10.00;;;9.00;99.90;;;;;;5015118;28;20061;-89
2021/12/30 00:19:26;;;;;;;52.10;8.43;;;8.40;99.90;;;;;;4999195;28;20132;-88
2021/12/30 00:21:52;;;;;;;41.40;6.93;;;8.80;99.90;;;;;;4998867;28;20064;-89
2021/12/30 00:24:18;;;;;;;50.50;8.20;;;7.80;99.90;;;;;;5015160;28;20057;-88
2021/12/30 00:26:44;;;;;;;68.88;9.02;;;8.80;99.90;;;;;;5000959;28;20053;-88
2021/12/30 00:29:09;;;;;;;59.30;9.10;;;8.30;99.90;;;;;;5000956;28;20892;-89
2021/12/30 00:31:35;;;;;;;63.75;9.73;;;8.70;99.90;;;;;;5001732;28;20037;-88
2021/12/30 00:34:01;;;;;;;56.28;8.98;;;8.20;99.90;;;;;;5014853;28;20107;-89
2021/12/30 00:36:27;;;;;;;57.33;10.98;;;8.10;99.90;;;;;;4999740;28;20124;-88
2021/12/30 00:38:52;;;;;;;51.97;8.77;;;8.00;99.90;;;;;;4999598;28;20091;-89
2021/12/30 00:41:19;;;;;;;67.00;11.95;;;9.00;99.90;;;;;;5015594;28;20057;-89
2021/12/30 00:43:45;;;;;;;50.13;9.77;;;8.20;99.90;;;;;;5015540;28;20053;-88
2021/12/30 00:46:11;;;;;;;59.20;8.70;;;8.70;99.90;;;;;;4998140;28;20463;-88
2021/12/30 00:48:38;;;;;;;59.65;9.70;;;7.50;99.90;;;;;;4999492;28;20061;-88
2021/12/30 00:51:05;;;;;;;57.25;9.48;;;9.70;99.90;;;;;;4999207;28;20124;-88
2021/12/30 00:53:31;;;;;;;52.03;9.65;;;8.20;99.90;;;;;;4998811;28;20503;-87
2021/12/30 00:55:58;;;;;;;63.60;11.35;;;8.40;99.90;;;;;;4998667;28;20044;-89
2021/12/30 00:58:23;;;;;;;64.72;11.45;;;8.80;99.90;;;;;;4998952;28;20046;-87
2021/12/30 01:00:49;;;;;;;58.78;9.27;;;8.30;99.90;;;;;;4998759;28;20053;-89
2021/12/30 01:03:16;;;;;;;64.35;11.10;;;7.90;99.90;;;;;;4999728;28;20060;-89
2021/12/30 01:05:43;;;;;;;53.60;10.77;;;7.70;99.90;;;;;;5015580;28;20053;-88
2021/12/30 01:08:09;;;;;;;56.05;10.70;;;9.00;99.90;;;;;;4999856;28;20059;-89
2021/12/30 01:10:37;;;;;;;65.00;9.75;;;8.60;99.90;;;;;;5014698;28;20602;-89
2021/12/30 01:13:06;;;;;;;68.57;9.23;;;8.20;99.90;;;;;;5013876;28;20132;-89
2021/12/30 01:15:46;;;;;;;73.25;12.05;;;7.70;99.90;;;;;;4997511;28;20503;-88
2021/12/30 01:21:10;;;;;;;64.25;10.43;;;7.60;99.90;;;;;;5003698;28;20065;-88
2021/12/30 01:23:36;;;;;;;72.97;12.10;;;7.10;99.90;;;;;;5002761;28;20053;-88
2021/12/30 01:26:04;;;;;;;71.57;9.88;;;7.50;99.90;;;;;;5002409;28;20227;-88
2021/12/30 01:28:30;;;;;;;91.32;12.25;;;7.70;99.90;;;;;;5002379;28;20128;-88
2021/12/30 01:30:56;;;;;;;69.55;12.40;;;7.70;99.90;;;;;;5002380;28;20046;-88
2021/12/30 01:33:23;;;;;;;58.58;9.30;;;8.30;99.90;;;;;;5019221;28;20053;-88
2021/12/30 01:35:48;;;;;;;63.60;9.00;;;7.80;99.90;;;;;;5003074;28;20081;-89
2021/12/30 01:38:16;;;;;;;82.95;11.07;;;7.30;99.90;;;;;;5002380;28;20053;-89
2021/12/30 01:40:48;;;;;;;69.05;12.57;;;7.40;99.90;;;;;;5002849;28;20052;-88
2021/12/30 01:43:14;;;;;;;78.95;11.80;;;7.30;99.90;;;;;;5002432;28;20483;-89
2021/12/30 01:45:41;;;;;;;76.32;11.02;;;7.60;99.90;;;;;;5002594;28;20049;-89
2021/12/30 01:48:07;;;;;;;73.93;12.35;;;7.30;99.90;;;;;;5018761;28;20049;-88
2021/12/30 01:50:33;;;;;;;72.78;11.82;;;7.30;99.90;;;;;;5002007;28;20053;-89
2021/12/30 01:52:59;;;;;;;85.22;12.85;;;7.20;99.90;;;;;;5002202;28;20041;-88
2021/12/30 01:55:25;;;;;;;79.82;11.85;;;7.60;99.90;;;;;;5002596;28;20050;-88
2021/12/30 01:57:51;;;;;;;72.78;12.07;;;6.70;99.90;;;;;;5001331;28;20069;-89
2021/12/30 02:00:24;;;;;;;60.03;11.85;;;7.10;99.90;;;;;;5001749;28;20053;-88
2021/12/30 02:02:49;;;;;;;69.20;11.93;;;8.10;99.90;;;;;;5018182;28;20152;-88
2021/12/30 02:05:16;;;;;;;70.20;9.85;;;7.90;99.90;;;;;;5002977;28;20697;-89
2021/12/30 02:07:43;;;;;;;57.60;9.27;;;8.10;99.90;;;;;;5002281;28;20484;-89
2021/12/30 02:10:10;;;;;;;69.07;12.82;;;8.60;99.90;;;;;;5018012;28;20041;-89
2021/12/30 02:12:38;;;;;;;66.97;10.50;;;7.50;99.90;;;;;;5001713;28;20057;-88
2021/12/30 02:15:07;;;;;;;69.93;9.75;;;7.60;99.90;;;;;;5001662;28;20123;-89
2021/12/30 02:17:33;;;;;;;85.25;13.23;;;7.50;99.90;;;;;;5002845;28;20049;-89
2021/12/30 02:20:08;;;;;;;81.60;13.90;;;7.80;99.90;;;;;;5002079;28;20047;-88
2021/12/30 02:22:34;;;;;;;70.40;10.40;;;7.60;99.90;;;;;;5001369;28;20076;-88
2021/12/30 02:25:03;;;;;;;67.38;10.77;;;7.60;99.90;;;;;;5001196;28;20053;-87
2021/12/30 02:27:30;;;;;;;56.25;8.10;;;8.00;99.90;;;;;;5001816;28;20801;-88
2021/12/30 02:29:55;;;;;;;51.92;9.60;;;7.60;99.90;;;;;;5017270;28;20049;-88
2021/12/30 02:32:22;;;;;;;66.35;10.90;;;7.70;99.90;;;;;;5000726;28;20148;-88
2021/12/30 02:34:49;;;;;;;63.83;11.85;;;7.00;99.90;;;;;;5018249;28;20050;-89
2021/12/30 02:37:20;;;;;;;66.53;9.73;;;8.80;99.90;;;;;;5002030;28;20139;-88
2021/12/30 02:39:52;;;;;;;75.75;12.57;;;7.50;99.90;;;;;;5001356;28;20060;-88
2021/12/30 02:42:24;;;;;;;56.47;9.35;;;8.30;99.90;;;;;;5001200;28;20140;-88
2021/12/30 02:44:52;;;;;;;70.78;11.73;;;8.10;99.90;;;;;;5016437;28;20049;-88
2021/12/30 02:47:20;;;;;;;73.95;11.85;;;7.50;99.90;;;;;;5001196;28;20150;-88
2021/12/30 02:49:46;;;;;;;70.88;11.50;;;8.80;99.90;;;;;;5003491;28;20041;-90
2021/12/30 02:52:12;;;;;;;76.50;11.18;;;8.40;99.90;;;;;;5000936;28;20055;-89
2021/12/30 02:54:39;;;;;;;72.30;13.52;;;7.70;99.90;;;;;;5001303;28;20049;-88
2021/12/30 02:57:06;;;;;;;65.32;11.45;;;7.00;99.90;;;;;;5001041;28;20083;-88
2021/12/30 02:59:32;;;;;;;72.90;10.52;;;8.40;99.90;;;;;;5001412;28;20054;-88
2021/12/30 03:02:00;;;;;;;77.43;13.50;;;8.60;99.90;;;;;;5000736;28;20075;-89
2021/12/30 03:04:26;;;;;;;75.00;12.25;;;8.10;99.90;;;;;;5017527;28;20046;-87
2021/12/30 03:06:53;;;;;;;79.07;13.77;;;7.90;99.90;;;;;;5001393;28;20044;-88
2021/12/30 03:09:19;;;;;;;75.13;14.38;;;8.30;99.90;;;;;;5001235;28;20049;-88
2021/12/30 03:11:45;;;;;;;79.88;16.17;;;8.50;99.90;;;;;;5002668;28;20508;-88
2021/12/30 03:14:11;;;;;;;59.70;11.77;;;8.40;99.90;;;;;;5002879;28;20080;-88
2021/12/30 03:16:37;;;;;;;69.97;13.95;;;8.00;99.90;;;;;;5002853;28;20050;-88
2021/12/30 03:19:05;;;;;;;80.78;13.73;;;7.90;99.90;;;;;;5002842;28;20666;-88
2021/12/30 03:21:36;;;;;;;82.25;13.88;;;8.60;99.90;;;;;;5008894;28;20133;-88
2021/12/30 03:24:03;;;;;;;73.13;14.57;;;8.30;99.90;;;;;;5017848;28;20040;-88
2021/12/30 03:26:31;;;;;;;83.50;15.63;;;8.10;99.90;;;;;;5020644;28;20030;-89
2021/12/30 03:28:58;;;;;;;68.15;14.30;;;7.90;99.90;;;;;;5020670;28;20111;-89
2021/12/30 03:31:24;;;;;;;81.97;16.65;;;8.10;99.90;;;;;;5014360;28;20637;-88
2021/12/30 03:33:50;;;;;;;82.78;15.73;;;8.50;99.90;;;;;;5002141;28;20049;-88
2021/12/30 03:36:17;;;;;;;72.88;15.52;;;8.60;99.90;;;;;;5002304;28;20056;-88
2021/12/30 03:38:49;;;;;;;84.78;17.92;;;8.20;99.90;;;;;;5001529;28;20049;-88
2021/12/30 03:41:18;;;;;;;85.18;16.48;;;7.70;99.90;;;;;;5001121;28;20135;-88
2021/12/30 03:43:44;;;;;;;92.88;18.35;;;9.50;99.90;;;;;;5000868;28;20085;-89
2021/12/30 03:46:10;;;;;;;93.57;17.80;;;8.40;99.90;;;;;;5001025;28;20488;-88
2021/12/30 03:48:42;;;;;;;98.18;21.40;;;9.10;99.90;;;;;;5000903;28;20068;-88
2021/12/30 03:51:12;;;;;;;84.68;21.23;;;9.10;99.90;;;;;;4999984;28;20053;-89
2021/12/30 03:53:41;;;;;;;96.55;22.15;;;8.40;99.90;;;;;;5000314;28;20045;-87
2021/12/30 03:56:12;;;;;;;111.50;23.23;;;8.50;99.90;;;;;;5016477;28;20057;-88
2021/12/30 03:58:40;;;;;;;93.72;21.30;;;8.60;99.90;;;;;;4999951;28;20559;-88
2021/12/30 04:01:07;;;;;;;98.47;20.92;;;8.60;99.90;;;;;;4999908;28;20140;-89
2021/12/30 04:03:33;;;;;;;104.38;23.33;;;8.60;99.90;;;;;;4998702;28;20045;-88
2021/12/30 04:06:11;;;;;;;96.63;21.65;;;8.50;99.90;;;;;;5000252;28;20034;-88
2021/12/30 04:08:37;;;;;;;96.05;22.98;;;8.50;99.90;;;;;;4999197;28;20107;-88
2021/12/30 04:11:04;;;;;;;119.35;22.05;;;9.20;99.90;;;;;;4999462;28;20049;-89
2021/12/30 04:13:30;;;;;;;104.00;25.13;;;9.00;99.90;;;;;;4999445;28;20064;-88
2021/12/30 04:15:56;;;;;;;95.25;24.05;;;8.40;99.90;;;;;;4999747;28;20060;-88
2021/12/30 04:18:22;;;;;;;105.75;26.45;;;8.90;99.90;;;;;;4998559;28;20151;-88
2021/12/30 04:20:48;;;;;;;104.60;22.90;;;9.70;99.90;;;;;;5035187;28;20037;-88
2021/12/30 04:23:15;;;;;;;98.35;22.95;;;8.60;99.90;;;;;;5001232;28;20056;-88
2021/12/30 04:25:41;;;;;;;77.93;18.77;;;9.10;99.90;;;;;;5000793;28;20057;-89
2021/12/30 04:28:07;;;;;;;106.18;21.95;;;8.30;99.90;;;;;;4998739;28;20060;-88
2021/12/30 04:30:32;;;;;;;99.80;22.77;;;8.90;99.90;;;;;;4999401;28;20067;-90
2021/12/30 04:32:59;;;;;;;95.43;24.83;;;9.30;99.90;;;;;;4998752;28;20058;-89
2021/12/30 04:35:24;;;;;;;93.43;19.65;;;9.70;99.90;;;;;;4998578;28;20049;-88
2021/12/30 04:37:50;;;;;;;91.75;18.48;;;9.60;99.90;;;;;;4999257;28;20049;-88
2021/12/30 04:40:17;;;;;;;99.05;22.20;;;8.90;99.90;;;;;;4999476;28;20060;-88
2021/12/30 04:42:45;;;;;;;99.00;21.63;;;9.80;99.90;;;;;;4999031;28;20095;-87
2021/12/30 04:45:12;;;;;;;74.85;17.15;;;9.10;99.90;;;;;;5015283;28;20054;-88
2021/12/30 04:47:40;;;;;;;96.95;21.83;;;8.90;99.90;;;;;;4998279;28;20085;-88
2021/12/30 04:50:11;;;;;;;98.15;21.95;;;9.10;99.90;;;;;;4998514;28;20042;-89
2021/12/30 04:52:39;;;;;;;93.20;21.42;;;9.10;99.90;;;;;;4998928;28;20073;-89
2021/12/30 04:55:06;;;;;;;92.57;21.77;;;9.20;99.90;;;;;;5004090;28;20064;-88
2021/12/30 04:57:32;;;;;;;105.13;24.25;;;9.20;99.90;;;;;;5003532;28;20095;-89
2021/12/30 04:59:58;;;;;;;89.07;21.40;;;9.20;99.90;;;;;;5003093;28;20054;-88
2021/12/30 05:02:30;;;;;;;96.10;22.77;;;9.30;99.90;;;;;;5002782;28;20130;-88
2021/12/30 05:04:55;;;;;;;108.07;26.98;;;9.80;99.90;;;;;;5018374;28;20049;-88
2021/12/30 05:07:21;;;;;;;95.30;24.45;;;9.60;99.90;;;;;;5002244;28;20080;-90
2021/12/30 05:09:50;;;;;;;82.05;21.25;;;9.70;99.90;;;;;;5002041;28;20488;-89
2021/12/30 05:12:16;;;;;;;110.95;25.67;;;9.40;99.90;;;;;;5001281;28;20456;-87
2021/12/30 05:14:41;;;;;;;96.82;23.55;;;10.50;99.90;;;;;;5002263;28;20053;-89
2021/12/30 05:17:07;;;;;;;88.32;23.23;;;10.20;99.90;;;;;;5002425;28;20041;-89
2021/12/30 05:19:33;;;;;;;90.93;22.88;;;10.00;99.90;;;;;;5001902;28;20045;-89
2021/12/30 05:22:08;;;;;;;86.88;24.23;;;10.50;99.90;;;;;;5002932;28;20057;-89
2021/12/30 05:24:34;;;;;;;77.15;19.60;;;10.00;99.90;;;;;;5003905;28;20436;-89
2021/12/30 05:26:59;;;;;;;78.32;20.42;;;10.40;99.90;;;;;;5002334;28;20049;-89
2021/12/30 05:29:25;;;;;;;83.43;20.67;;;9.60;99.90;;;;;;5002833;28;20091;-88
2021/12/30 05:31:51;;;;;;;82.07;21.20;;;10.20;99.90;;;;;;5002861;28;20139;-88
2021/12/30 05:34:17;;;;;;;64.63;17.83;;;11.00;99.90;;;;;;5002274;28;20080;-88
2021/12/30 05:36:43;;;;;;;57.22;17.40;;;10.50;99.90;;;;;;5004627;28;20081;-88
2021/12/30 05:39:10;;;;;;;74.40;19.25;;;10.00;99.90;;;;;;5001115;28;20054;-88
2021/12/30 05:41:35;;;;;;;77.82;19.60;;;10.70;99.90;;;;;;5002697;28;20045;-88
2021/12/30 05:44:04;;;;;;;68.88;17.17;;;10.20;99.90;;;;;;5018367;28;20109;-89
2021/12/30 05:46:35;;;;;;;58.65;17.95;;;10.20;99.90;;;;;;5002800;28;20499;-89
2021/12/30 05:49:01;;;;;;;65.20;17.85;;;9.50;99.90;;;;;;5002813;28;20134;-88
2021/12/30 05:51:27;;;;;;;52.72;16.73;;;10.30;99.90;;;;;;5001128;28;20076;-89
2021/12/30 05:53:53;;;;;;;57.92;16.55;;;11.20;99.90;;;;;;4999414;28;20501;-88
2021/12/30 05:56:19;;;;;;;62.05;16.13;;;10.70;99.90;;;;;;5015233;28;20119;-89
2021/12/30 05:58:54;;;;;;;50.13;15.07;;;11.10;99.90;;;;;;5010344;28;20449;-88
2021/12/30 06:01:19;;;;;;;40.58;12.05;;;10.30;99.90;;;;;;5021847;28;20049;-88
2021/12/30 06:03:45;;;;;;;39.15;13.65;;;11.30;99.90;;;;;;5003312;28;20151;-88
2021/12/30 06:06:11;;;;;;;39.25;14.13;;;10.50;99.90;;;;;;5011995;28;20036;-90
2021/12/30 06:08:37;;;;;;;46.05;13.32;;;10.20;99.90;;;;;;5020500;28;20046;-90
2021/12/30 06:11:03;;;;;;;36.25;12.45;;;11.40;99.90;;;;;;5035586;28;20041;-91
2021/12/30 06:13:29;;;;;;;46.80;13.75;;;10.50;99.90;;;;;;5009175;28;20064;-89
2021/12/30 06:15:57;;;;;;;39.50;14.82;;;10.10;99.90;;;;;;5037459;28;20061;-89
2021/12/30 06:18:26;;;;;;;48.00;15.38;;;10.20;99.90;;;;;;5004370;28;20045;-88
2021/12/30 06:20:52;;;;;;;46.83;13.73;;;10.00;99.90;;;;;;5003478;28;20049;-87
2021/12/30 06:23:21;;;;;;;48.13;17.10;;;9.70;99.90;;;;;;5003801;28;20072;-88
2021/12/30 06:26:05;;;;;;;53.58;17.52;;;10.20;99.90;;;;;;5002172;28;20052;-87
2021/12/30 06:28:31;;;;;;;65.05;19.25;;;10.50;99.90;;;;;;5000055;28;20053;-87
2021/12/30 06:30:59;;;;;;;57.75;17.08;;;10.90;99.90;;;;;;4998546;28;20045;-89
2021/12/30 06:33:25;;;;;;;65.68;20.15;;;10.60;99.90;;;;;;5015153;28;20041;-88
2021/12/30 06:35:51;;;;;;;75.45;22.90;;;10.90;99.90;;;;;;4998113;28;20052;-87
2021/12/30 06:38:17;;;;;;;96.38;24.35;;;11.50;99.90;;;;;;4998375;28;20049;-87
2021/12/30 06:43:42;;;;;;;119.72;28.15;;;11.10;99.90;;;;;;5014288;28;20526;-88
2021/12/30 06:46:10;;;;;;;107.70;29.35;;;10.60;99.90;;;;;;4997750;28;20061;-87
2021/12/30 06:48:44;;;;;;;114.35;26.67;;;10.70;99.90;;;;;;4998399;28;20054;-89
2021/12/30 06:51:14;;;;;;;106.78;25.88;;;10.60;99.90;;;;;;4999611;28;20049;-88
2021/12/30 06:53:43;;;;;;;133.48;29.45;;;10.80;99.90;;;;;;4998690;28;20049;-88
2021/12/30 06:56:09;;;;;;;126.05;28.05;;;11.10;99.90;;;;;;4998409;28;20053;-88
2021/12/30 06:58:35;;;;;;;97.40;25.23;;;11.50;99.90;;;;;;4996866;28;20159;-89
2021/12/30 07:01:01;;;;;;;100.70;26.10;;;11.20;99.90;;;;;;4998471;28;20057;-89
2021/12/30 07:03:27;;;;;;;89.60;24.75;;;11.20;99.90;;;;;;4998214;28;20052;-90
2021/12/30 07:05:54;;;;;;;90.55;24.73;;;11.80;99.90;;;;;;5002344;28;20045;-89
2021/12/30 07:08:21;;;;;;;85.85;21.88;;;10.70;99.90;;;;;;5013300;28;20119;-88
2021/12/30 07:10:49;;;;;;;111.93;25.52;;;11.40;99.90;;;;;;4997089;28;20113;-89
2021/12/30 07:13:15;;;;;;;75.38;20.08;;;11.90;99.90;;;;;;4998628;28;20057;-88
2021/12/30 07:15:41;;;;;;;86.50;22.00;;;11.00;99.90;;;;;;4998625;28;20049;-89
2021/12/30 07:18:07;;;;;;;73.03;19.92;;;10.90;99.90;;;;;;4999341;28;20575;-88
2021/12/30 07:20:36;;;;;;;68.25;19.63;;;11.00;99.90;;;;;;4998642;28;20158;-89
2021/12/30 07:23:07;;;;;;;63.72;19.70;;;12.00;99.90;;;;;;4998855;28;20378;-90
2021/12/30 07:26:02;;;;;;;64.50;18.00;;;11.50;99.90;;;;;;4999362;28;20057;-90
2021/12/30 07:28:31;;;;;;;62.35;17.83;;;11.10;99.90;;;;;;4997160;28;20057;-91
2021/12/30 07:31:02;;;;;;;52.33;16.27;;;11.60;99.90;;;;;;5000324;28;20088;-90
2021/12/30 07:33:28;;;;;;;58.83;16.70;;;11.80;99.90;;;;;;5001047;28;20688;-90
2021/12/30 07:35:57;;;;;;;53.53;15.05;;;11.60;99.90;;;;;;5001632;28;20249;-90
2021/12/30 07:38:29;;;;;;;47.15;13.52;;;11.10;99.90;;;;;;5000570;28;20427;-90
2021/12/30 07:41:10;;;;;;;49.72;13.65;;;11.20;99.90;;;;;;5000738;28;20496;-89
2021/12/30 07:43:42;;;;;;;36.47;12.38;;;11.20;99.90;;;;;;4999966;28;20054;-89
2021/12/30 07:46:14;;;;;;;39.15;13.18;;;12.30;99.90;;;;;;5000189;28;20504;-89
2021/12/30 07:49:11;;;;;;;;;;;;;;;;;;;;;
2021/12/30 07:51:42;;;;;;;36.67;11.38;;;10.70;99.90;;;;;;5013909;28;20053;-90
2021/12/30 07:54:26;;;;;;;37.13;11.07;;;11.30;99.90;;;;;;4999692;28;20053;-91
2021/12/30 07:56:52;;;;;;;31.38;9.95;;;11.30;99.90;;;;;;4998304;28;20065;-90
2021/12/30 07:59:21;;;;;;;26.10;9.15;;;12.10;99.90;;;;;;4998362;28;20058;-91
2021/12/30 08:01:52;;;;;;;35.33;10.23;;;11.70;99.90;;;;;;4998728;28;20049;-91
2021/12/30 08:04:32;;;;;;;26.80;7.85;;;11.40;99.90;;;;;;4999444;28;20474;-90
2021/12/30 08:07:24;;;;;;;24.35;7.05;;;11.80;99.90;;;;;;4999021;28;20376;-91
2021/12/30 08:09:58;;;;;;;21.33;6.20;;;10.70;99.90;;;;;;4998100;28;20127;-91
2021/12/30 08:12:24;;;;;;;20.40;6.22;;;11.40;99.90;;;;;;4997570;28;20384;-89
2021/12/30 08:15:01;;;;;;;11.25;4.38;;;12.30;99.90;;;;;;4998169;28;20049;-90
2021/12/30 08:17:27;;;;;;;9.82;4.30;;;11.60;99.90;;;;;;4998475;28;20129;-91
2021/12/30 08:19:56;;;;;;;10.05;3.58;;;11.80;99.90;;;;;;4998207;28;20045;-90
2021/12/30 08:22:51;;;;;;;6.63;3.00;;;11.60;99.90;;;;;;4998054;28;20423;-89
2021/12/30 08:25:23;;;;;;;6.60;2.45;;;12.40;99.90;;;;;;4998911;28;20144;-90
2021/12/30 08:27:55;;;;;;;6.18;2.42;;;11.80;99.90;;;;;;4996812;28;20056;-92
2021/12/30 08:30:35;;;;;;;6.35;2.20;;;11.60;99.90;;;;;;4998953;28;20081;-90
2021/12/30 08:33:19;;;;;;;6.43;2.60;;;11.90;99.90;;;;;;4999665;28;20522;-91
2021/12/30 08:36:00;;;;;;;;;;;;;;;;;;;;;
2021/12/30 08:38:28;;;;;;;5.78;1.98;;;11.60;99.90;;;;;;5013736;28;20056;-88
2021/12/30 08:40:59;;;;;;;7.80;2.65;;;11.70;99.90;;;;;;4997136;28;20104;-90
2021/12/30 08:43:30;;;;;;;7.43;2.45;;;11.60;99.90;;;;;;4997275;28;20068;-90
2021/12/30 08:45:59;;;;;;;6.32;2.30;;;12.00;99.90;;;;;;4996247;28;20049;-90
2021/12/30 08:48:25;;;;;;;5.55;2.63;;;11.60;99.90;;;;;;4996318;28;20053;-89
2021/12/30 08:51:09;;;;;;;10.35;3.15;;;11.20;99.90;;;;;;4996768;28;20428;-90
2021/12/30 08:53:40;;;;;;;8.00;3.45;;;12.70;99.90;;;;;;4996760;28;20083;-89
2021/12/30 08:56:17;;;;;;;9.52;3.75;;;11.50;99.90;;;;;;4995285;28;20041;-90
2021/12/30 08:58:46;;;;;;;9.27;4.05;;;12.50;99.90;;;;;;4995652;28;20136;-90
2021/12/30 09:01:14;;;;;;;7.28;3.40;;;11.70;99.90;;;;;;4996921;28;20872;-90
2021/12/30 09:03:49;;;;;;;11.02;5.35;;;11.80;99.90;;;;;;4995920;28;20111;-89
2021/12/30 09:06:15;;;;;;;11.48;5.20;;;12.40;99.90;;;;;;4996736;28;20771;-89
2021/12/30 09:08:41;;;;;;;15.27;6.57;;;12.80;99.90;;;;;;4997315;28;20087;-88
2021/12/30 09:11:07;;;;;;;16.85;6.68;;;12.80;99.90;;;;;;5000878;28;20492;-89
2021/12/30 09:13:39;;;;;;;21.50;7.80;;;12.70;99.90;;;;;;5000949;28;20044;-88
2021/12/30 09:16:14;;;;;;;19.98;9.05;;;12.80;99.90;;;;;;5029722;28;20049;-91
2021/12/30 09:18:51;;;;;;;19.40;7.55;;;12.50;99.90;;;;;;5017917;28;20033;-90
2021/12/30 09:21:25;;;;;;;24.65;8.90;;;11.90;99.90;;;;;;5018439;28;20037;-90
2021/12/30 09:24:15;;;;;;;19.90;8.98;;;12.00;99.90;;;;;;5007295;28;20103;-89
2021/12/30 09:26:43;;;;;;;22.73;6.90;;;11.50;99.90;;;;;;4997740;28;20091;-89
2021/12/30 09:29:14;;;;;;;17.58;6.07;;;12.50;99.90;;;;;;4997365;28;20041;-89
2021/12/30 09:31:58;;;;;;;16.35;5.35;;;12.20;99.90;;;;;;4996570;28;20053;-89
2021/12/30 09:34:38;;;;;;;20.17;7.47;;;12.00;99.90;;;;;;4997288;28;20550;-90
2021/12/30 09:37:12;;;;;;;15.35;6.90;;;11.90;99.90;;;;;;4996987;28;20071;-89
2021/12/30 09:39:41;;;;;;;14.05;4.90;;;12.50;99.90;;;;;;5000714;28;20392;-88
2021/12/30 09:42:18;;;;;;;14.98;5.28;;;12.10;99.90;;;;;;5000401;28;20085;-88
2021/12/30 09:44:53;;;;;;;17.80;5.18;;;11.90;99.90;;;;;;4998491;28;20057;-89
2021/12/30 09:47:48;;;;;;;13.93;6.43;;;12.20;99.90;;;;;;5016855;28;20049;-88
2021/12/30 09:50:22;;;;;;;14.63;6.10;;;12.90;99.90;;;;;;4999712;28;20092;-88
2021/12/30 09:52:55;;;;;;;19.73;7.55;;;12.60;99.90;;;;;;4999025;28;20045;-89
2021/12/30 09:55:33;;;;;;;20.00;7.78;;;12.50;99.90;;;;;;4999287;28;20202;-90
2021/12/30 09:58:07;;;;;;;25.70;8.77;;;12.20;99.90;;;;;;4998947;28;20049;-89
2021/12/30 10:00:39;;;;;;;25.02;9.20;;;12.10;99.90;;;;;;4997712;28;20065;-90
2021/12/30 10:03:46;;;;;;;23.98;9.68;;;12.20;99.90;;;;;;5016557;28;20057;-89
2021/12/30 10:06:30;;;;;;;;;;;;;;;;;;;;;
2021/12/30 10:09:27;;;;;;;23.90;9.73;;;12.10;99.90;;;;;;5013900;28;20053;-89
2021/12/30 10:12:04;;;;;;;26.92;9.40;;;12.20;99.90;;;;;;4998403;28;20408;-90
2021/12/30 10:14:56;;;;;;;20.65;7.57;;;12.00;99.90;;;;;;4997803;28;20080;-89
2021/12/30 10:17:28;;;;;;;25.73;8.73;;;11.40;99.90;;;;;;4983574;28;20129;-89
2021/12/30 10:20:22;;;;;;;24.17;8.15;;;12.30;99.90;;;;;;4997472;28;20045;-89
2021/12/30 10:23:10;;;;;;;16.17;6.45;;;12.00;99.90;;;;;;4981482;28;20148;-89
2021/12/30 10:28:52;;;;;;;20.27;6.05;;;12.00;99.90;;;;;;5012705;28;20049;-89
2021/12/30 10:31:27;;;;;;;25.05;7.40;;;12.10;99.90;;;;;;4996924;28;20519;-89
2021/12/30 10:34:12;;;;;;;18.13;6.00;;;12.00;99.90;;;;;;4997711;28;20135;-90
2021/12/30 10:36:47;;;;;;;25.63;7.15;;;11.90;99.90;;;;;;4996844;28;20117;-88
2021/12/30 10:39:31;;;;;;;27.92;7.95;;;12.00;99.90;;;;;;4997095;28;20045;-89
2021/12/30 10:42:10;;;;;;;23.98;7.90;;;11.90;99.90;;;;;;4995933;28;20056;-91
2021/12/30 10:45:04;;;;;;;29.48;8.75;;;12.10;99.90;;;;;;5013247;28;20045;-89
2021/12/30 10:47:59;;;;;;;40.67;11.32;;;11.90;99.90;;;;;;4996880;28;20061;-90
2021/12/30 10:50:30;;;;;;;29.42;8.52;;;11.70;99.90;;;;;;4995661;28;20115;-90
2021/12/30 10:53:10;;;;;;;29.58;9.73;;;11.90;99.90;;;;;;4996389;28;20049;-90
2021/12/30 10:58:56;;;;;;;29.73;7.68;;;11.90;99.90;;;;;;5013299;28;20500;-89
2021/12/30 11:01:31;;;;;;;35.10;9.10;;;12.00;99.90;;;;;;4994371;28;20061;-90
2021/12/30 11:04:03;;;;;;;43.78;9.68;;;11.90;99.90;;;;;;4996847;28;20447;-89
2021/12/30 11:09:40;;;;;;;32.00;6.43;;;12.30;99.90;;;;;;4972066;28;20096;-90
2021/12/30 11:12:09;;;;;;;41.00;8.73;;;12.50;99.90;;;;;;4998095;28;20510;-89
2021/12/30 11:14:54;;;;;;;37.53;9.35;;;12.60;99.90;;;;;;4997940;28;20057;-90
2021/12/30 11:17:28;;;;;;;53.65;8.80;;;11.90;99.90;;;;;;4995521;28;20084;-88
2021/12/30 11:20:11;;;;;;;37.38;7.60;;;12.20;99.90;;;;;;4995816;28;20080;-88
2021/12/30 11:23:03;;;;;;;35.10;9.07;;;11.90;99.90;;;;;;4996458;28;20765;-89
2021/12/30 11:25:34;;;;;;;42.72;8.77;;;11.30;99.90;;;;;;4997706;28;20096;-89
2021/12/30 11:28:33;;;;;;;57.55;12.00;;;11.90;99.90;;;;;;4969720;28;20449;-89
2021/12/30 11:31:16;;;;;;;37.15;7.35;;;12.90;99.90;;;;;;5015548;28;20053;-89
2021/12/30 11:34:50;;;;;;;50.20;10.13;;;12.50;99.90;;;;;;4998741;28;20484;-89
2021/12/30 11:38:04;;;;;;;29.90;7.18;;;12.00;99.90;;;;;;4974547;28;20054;-88
2021/12/30 11:40:48;;;;;;;44.03;10.35;;;12.30;99.90;;;;;;4993250;28;20063;-89
2021/12/30 11:43:22;;;;;;;51.97;10.45;;;11.40;99.90;;;;;;4996249;28;20135;-89
2021/12/30 11:46:03;;;;;;;45.10;8.73;;;12.40;99.90;;;;;;4996812;28;20219;-89
2021/12/30 11:48:38;;;;;;;55.35;9.70;;;12.80;99.90;;;;;;4995726;28;20159;-89
2021/12/30 11:51:30;;;;;;;39.78;6.80;;;11.90;99.90;;;;;;4996093;28;20056;-89
2021/12/30 11:54:47;;;;;;;43.70;9.18;;;11.90;99.90;;;;;;4997200;28;20188;-89
2021/12/30 11:57:47;;;;;;;46.88;9.52;;;11.90;99.90;;;;;;4995019;28;20045;-89
2021/12/30 12:00:40;;;;;;;48.25;10.20;;;11.90;99.90;;;;;;4994460;28;20141;-90
2021/12/30 12:03:29;;;;;;;50.53;8.88;;;12.00;99.90;;;;;;4994940;28;20809;-89
2021/12/30 12:06:03;;;;;;;52.42;10.30;;;11.90;99.90;;;;;;4995001;28;20049;-89
2021/12/30 12:09:26;;;;;;;47.30;9.50;;;11.90;99.90;;;;;;4990864;28;20100;-88
2021/12/30 12:12:13;;;;;;;37.28;8.07;;;12.00;99.90;;;;;;4974151;28;20472;-88
2021/12/30 12:14:51;;;;;;;44.42;8.82;;;11.90;99.90;;;;;;4995178;28;20053;-89
2021/12/30 12:17:45;;;;;;;36.85;8.02;;;12.50;99.90;;;;;;4996107;28;20118;-89
2021/12/30 12:20:30;;;;;;;40.70;8.95;;;12.30;99.90;;;;;;4993407;28;20057;-89
2021/12/30 12:23:24;;;;;;;30.05;7.38;;;12.40;99.90;;;;;;4992858;28;20141;-90
2021/12/30 12:26:16;;;;;;;41.65;8.13;;;12.00;99.90;;;;;;4994013;28;20084;-89
2021/12/30 12:29:34;;;;;;;46.33;9.20;;;11.90;99.90;;;;;;4999658;28;20064;-88
2021/12/30 12:32:10;;;;;;;40.72;7.70;;;11.90;99.90;;;;;;4995105;28;20342;-88
2021/12/30 12:35:32;;;;;;;49.60;8.25;;;12.60;99.90;;;;;;4995414;28;20492;-88
2021/12/30 12:42:50;;;;;;;39.28;7.95;;;12.00;99.90;;;;;;4978728;28;20053;-88
2021/12/30 12:45:56;;;;;;;40.63;8.00;;;12.00;99.90;;;;;;4879085;28;20167;-88
2021/12/30 12:48:58;;;;;;;34.73;8.60;;;11.60;99.90;;;;;;4934494;28;20105;-90
2021/12/30 12:51:36;;;;;;;37.22;8.60;;;12.00;99.90;;;;;;4923921;28;20757;-88
2021/12/30 12:55:01;;;;;;;37.72;7.93;;;12.20;99.90;;;;;;4933939;28;20146;-90
2021/12/30 12:57:33;;;;;;;37.28;7.88;;;12.50;99.90;;;;;;4995126;28;20053;-88
2021/12/30 13:00:44;;;;;;;37.03;8.80;;;12.00;99.90;;;;;;4995429;28;20144;-88
2021/12/30 13:03:23;;;;;;;40.08;8.73;;;12.40;99.90;;;;;;5013997;28;20061;-90
2021/12/30 13:06:05;;;;;;;36.92;8.75;;;12.30;99.90;;;;;;5014475;28;20045;-88
2021/12/30 13:08:41;;;;;;;43.53;9.27;;;11.50;99.90;;;;;;5004064;28;20053;-89
2021/12/30 13:11:37;;;;;;;;;;;;;;;;;;;;;
2021/12/30 13:14:30;;;;;;;45.70;11.52;;;12.00;99.90;;;;;;5013386;28;19925;-88
2021/12/30 13:17:13;;;;;;;54.45;10.30;;;12.00;99.90;;;;;;5000605;28;20515;-90
2021/12/30 13:19:44;;;;;;;40.25;8.88;;;11.90;99.90;;;;;;4999776;28;20369;-89
2021/12/30 13:22:23;;;;;;;33.53;8.18;;;11.30;99.90;;;;;;4999328;28;20519;-88
2021/12/30 13:25:07;;;;;;;41.15;9.32;;;12.40;99.90;;;;;;4998358;28;20045;-88
2021/12/30 13:28:08;;;;;;;46.35;9.48;;;12.00;99.90;;;;;;4998471;28;20049;-89
2021/12/30 13:30:49;;;;;;;43.40;9.63;;;12.50;99.90;;;;;;4998218;28;20400;-88
2021/12/30 13:33:19;;;;;;;46.83;8.93;;;13.00;99.90;;;;;;4997962;28;20045;-90